createdAt,value
2023-04-20T00:00:59.758Z,63.60
2023-04-20T00:04:01.464Z,63.80
2023-04-20T00:07:03.250Z,63.90
2023-04-20T00:10:05.553Z,64.10
2023-04-20T00:13:07.375Z,63.40
2023-04-20T00:16:08.924Z,64.10
2023-04-20T00:19:10.564Z,63.70
2023-04-20T00:22:12.415Z,63.50
2023-04-20T00:25:13.952Z,64.20
2023-04-20T00:28:15.624Z,63.70
2023-04-20T00:31:17.891Z,63.70
2023-04-20T00:34:19.578Z,64.10
2023-04-20T00:37:21.182Z,64.00
2023-04-20T00:40:22.829Z,64.20
2023-04-20T00:43:24.758Z,64.10
2023-04-20T00:46:27.015Z,63.90
2023-04-20T00:49:30.704Z,64.00
2023-04-20T00:52:32.914Z,64.00
2023-04-20T00:55:37.642Z,64.00
2023-04-20T00:58:41.870Z,64.30
2023-04-20T01:01:43.570Z,63.90
2023-04-20T01:04:47.186Z,64.00
2023-04-20T01:07:49.424Z,63.80
2023-04-20T01:10:51.163Z,64.00
2023-04-20T01:13:52.794Z,63.80
2023-04-20T01:16:55.476Z,63.80
2023-04-20T01:19:57.166Z,64.20
2023-04-20T01:22:58.704Z,64.30
2023-04-20T01:26:00.245Z,64.50
2023-04-20T01:29:01.789Z,65.20
2023-04-20T01:32:04.088Z,64.40
2023-04-20T01:35:06.588Z,64.70
2023-04-20T01:38:08.295Z,64.40
2023-04-20T01:41:10.842Z,64.70
2023-04-20T01:44:12.533Z,65.00
2023-04-20T01:47:14.276Z,65.20
2023-04-20T01:50:15.867Z,65.10
2023-04-20T01:53:17.667Z,64.80
2023-04-20T01:56:19.208Z,65.00
2023-04-20T01:59:20.964Z,64.80
2023-04-20T02:02:22.638Z,65.10
2023-04-20T02:05:24.380Z,64.70
2023-04-20T02:08:26.006Z,65.00
2023-04-20T02:11:27.586Z,65.10
2023-04-20T02:14:29.186Z,65.00
2023-04-20T02:17:32.748Z,65.00
2023-04-20T02:20:35.361Z,65.40
2023-04-20T02:23:37.078Z,65.20
2023-04-20T02:26:38.652Z,65.30
2023-04-20T02:29:40.360Z,65.10
2023-04-20T02:32:42.090Z,65.50
2023-04-20T02:35:43.682Z,65.30
2023-04-20T02:38:45.440Z,65.50
2023-04-20T02:41:46.953Z,65.50
2023-04-20T02:44:48.543Z,65.50
2023-04-20T02:47:50.158Z,65.90
2023-04-20T02:50:55.275Z,65.80
2023-04-20T02:53:56.813Z,66.10
2023-04-20T02:56:58.727Z,66.10
2023-04-20T03:00:00.430Z,66.50
2023-04-20T03:03:02.144Z,66.30
2023-04-20T03:06:04.165Z,67.20
2023-04-20T03:09:05.909Z,66.50
2023-04-20T03:12:07.579Z,67.60
2023-04-20T03:15:09.976Z,67.60
2023-04-20T03:18:11.783Z,66.60
2023-04-20T03:21:14.814Z,67.60
2023-04-20T03:24:16.973Z,67.70
2023-04-20T03:27:18.531Z,68.20
2023-04-20T03:30:20.149Z,67.80
2023-04-20T03:33:21.709Z,68.00
2023-04-20T03:36:23.296Z,67.90
2023-04-20T03:39:24.887Z,68.10
2023-04-20T03:42:26.461Z,68.90
2023-04-20T03:45:28.293Z,68.60
2023-04-20T03:48:29.963Z,68.70
2023-04-20T03:51:32.256Z,68.80
2023-04-20T03:54:33.819Z,69.40
2023-04-20T03:57:35.451Z,69.70
2023-04-20T04:00:37.107Z,69.60
2023-04-20T04:03:39.088Z,71.30
2023-04-20T04:06:41.132Z,71.00
2023-04-20T04:09:42.764Z,69.50
2023-04-20T04:12:44.903Z,70.10
2023-04-20T04:15:46.559Z,70.40
2023-04-20T04:18:48.154Z,70.30
2023-04-20T04:21:49.727Z,70.40
2023-04-20T04:24:51.577Z,70.20
2023-04-20T04:27:53.146Z,70.50
2023-04-20T04:30:54.744Z,70.90
2023-04-20T04:33:56.335Z,71.60
2023-04-20T04:36:57.978Z,71.30
2023-04-20T04:39:59.704Z,71.60
2023-04-20T04:43:01.311Z,71.50
2023-04-20T04:46:09.899Z,71.70
2023-04-20T04:49:11.818Z,72.50
2023-04-20T04:52:13.445Z,71.80
2023-04-20T04:55:16.335Z,72.00
2023-04-20T04:58:18.264Z,71.70
2023-04-20T05:01:19.920Z,71.80
2023-04-20T05:04:21.800Z,72.30
2023-04-20T05:07:24.633Z,72.20
2023-04-20T05:10:26.249Z,72.50
2023-04-20T05:13:27.847Z,72.90
2023-04-20T05:16:29.442Z,72.70
2023-04-20T05:19:31.163Z,72.70
2023-04-20T05:22:33.023Z,72.40
2023-04-20T05:25:35.132Z,72.40
2023-04-20T05:28:36.682Z,73.00
2023-04-20T05:31:38.271Z,72.90
2023-04-20T05:34:39.976Z,73.50
2023-04-20T05:37:41.747Z,73.40
2023-04-20T05:40:43.425Z,74.40
2023-04-20T05:43:45.084Z,73.40
2023-04-20T05:46:46.671Z,73.30
2023-04-20T05:49:48.251Z,73.90
2023-04-20T05:52:50.146Z,73.90
2023-04-20T05:55:51.971Z,74.30
2023-04-20T05:58:57.178Z,73.20
2023-04-20T06:01:58.791Z,74.50
2023-04-20T06:05:00.932Z,74.10
2023-04-20T06:08:02.707Z,74.50
2023-04-20T06:11:04.407Z,74.60
2023-04-20T06:14:06.020Z,74.60
2023-04-20T06:17:07.571Z,75.60
2023-04-20T06:20:10.494Z,75.60
2023-04-20T06:23:12.289Z,77.00
2023-04-20T06:26:13.852Z,76.50
2023-04-20T06:29:15.921Z,76.50
2023-04-20T06:32:17.953Z,76.20
2023-04-20T06:35:19.795Z,77.50
2023-04-20T06:38:21.426Z,76.60
2023-04-20T06:41:23.046Z,76.50
2023-04-20T06:44:24.619Z,76.90
2023-04-20T06:47:31.452Z,76.80
2023-04-20T06:50:33.281Z,77.10
2023-04-20T06:53:35.026Z,78.10
2023-04-20T06:56:36.734Z,77.70
2023-04-20T06:59:38.276Z,78.00
2023-04-20T07:02:44.394Z,78.00
2023-04-20T07:05:46.536Z,78.90
2023-04-20T07:08:48.226Z,78.60
2023-04-20T07:11:49.939Z,78.50
2023-04-20T07:14:51.588Z,78.40
2023-04-20T07:17:53.147Z,78.30
2023-04-20T07:20:54.847Z,78.30
2023-04-20T07:23:58.800Z,78.50
2023-04-20T07:27:00.857Z,79.40
2023-04-20T07:30:02.697Z,78.50
2023-04-20T07:33:04.477Z,78.40
2023-04-20T07:36:06.420Z,77.80
2023-04-20T07:39:08.035Z,77.70
2023-04-20T07:42:09.679Z,78.10
2023-04-20T07:45:13.719Z,78.20
2023-04-20T07:48:15.417Z,78.20
2023-04-20T07:51:17.105Z,78.10
2023-04-20T07:54:18.690Z,78.40
2023-04-20T07:57:20.991Z,77.60
2023-04-20T08:00:22.880Z,77.60
2023-04-20T08:03:24.642Z,77.20
2023-04-20T08:06:27.197Z,78.00
2023-04-20T08:09:29.537Z,78.10
2023-04-20T08:12:31.172Z,78.00
2023-04-20T08:15:32.800Z,77.80
2023-04-20T08:18:34.498Z,78.30
2023-04-20T08:21:40.116Z,78.60
2023-04-20T08:24:41.705Z,78.60
2023-04-20T08:27:43.264Z,79.40
2023-04-20T08:30:46.729Z,78.20
2023-04-20T08:33:48.314Z,78.70
2023-04-20T08:36:49.953Z,78.80
2023-04-20T08:39:51.560Z,78.10
2023-04-20T08:42:53.199Z,78.30
2023-04-20T08:45:59.582Z,77.70
2023-04-20T08:49:04.836Z,78.40
2023-04-20T08:52:10.580Z,78.50
2023-04-20T08:55:16.468Z,78.40
2023-04-20T08:58:18.407Z,78.80
2023-04-20T09:01:34.761Z,79.10
2023-04-20T09:04:37.420Z,78.90
2023-04-20T09:07:39.127Z,77.80
2023-04-20T09:10:45.063Z,78.00
2023-04-20T09:13:58.710Z,78.40
2023-04-20T09:17:05.205Z,79.30
2023-04-20T09:20:08.419Z,79.60
2023-04-20T09:23:16.398Z,78.90
2023-04-20T09:26:18.894Z,78.50
2023-04-20T09:29:23.259Z,79.80
2023-04-20T09:32:26.172Z,79.80
2023-04-20T09:35:27.785Z,79.90
2023-04-20T09:38:30.766Z,79.20
2023-04-20T09:41:33.046Z,78.70
2023-04-20T09:44:38.540Z,79.10
2023-04-20T09:47:42.757Z,79.20
2023-04-20T09:50:50.022Z,78.90
2023-04-20T09:53:54.625Z,79.30
2023-04-20T09:57:01.644Z,79.40
2023-04-20T10:00:06.856Z,78.00
2023-04-20T10:03:10.423Z,79.50
2023-04-20T10:06:26.228Z,78.70
2023-04-20T10:09:27.808Z,76.70
2023-04-20T10:12:29.375Z,77.00
2023-04-20T10:15:41.516Z,77.70
2023-04-20T10:18:43.171Z,78.80
2023-04-20T10:21:47.296Z,79.40
2023-04-20T10:24:48.855Z,80.30
2023-04-20T10:27:55.846Z,79.20
2023-04-20T10:30:57.454Z,79.80
2023-04-20T10:33:59.033Z,79.10
2023-04-20T10:37:11.394Z,79.70
2023-04-20T10:40:13.326Z,80.00
2023-04-20T10:43:21.354Z,79.10
2023-04-20T10:46:24.471Z,79.10
2023-04-20T10:49:31.111Z,77.50
2023-04-20T10:52:34.661Z,74.80
2023-04-20T10:55:36.206Z,76.30
2023-04-20T10:58:37.867Z,76.10
2023-04-20T11:01:40.887Z,77.40
2023-04-20T11:04:43.485Z,77.00
2023-04-20T11:07:57.601Z,77.30
2023-04-20T11:10:59.215Z,77.40
2023-04-20T11:14:08.625Z,76.80
2023-04-20T11:17:10.356Z,77.00
2023-04-20T11:20:14.937Z,76.80
2023-04-20T11:23:16.500Z,77.60
2023-04-20T11:26:18.679Z,76.80
2023-04-20T11:29:39.799Z,77.30
2023-04-20T11:32:41.724Z,77.30
2023-04-20T11:35:44.221Z,76.10
2023-04-20T11:38:46.050Z,75.10
2023-04-20T11:41:47.602Z,75.30
2023-04-20T11:44:49.569Z,75.60
2023-04-20T11:47:52.534Z,74.40
2023-04-20T11:50:54.161Z,76.00
2023-04-20T11:53:56.078Z,76.00
2023-04-20T11:56:58.930Z,75.30
2023-04-20T12:00:00.933Z,75.10
2023-04-20T12:03:02.851Z,75.00
2023-04-20T12:06:04.833Z,74.90
2023-04-20T12:09:06.461Z,74.20
2023-04-20T12:12:11.298Z,75.00
2023-04-20T12:15:12.871Z,73.50
2023-04-20T12:18:14.442Z,74.60
2023-04-20T12:21:16.019Z,74.20
2023-04-20T12:24:17.613Z,75.10
2023-04-20T12:27:20.273Z,74.70
2023-04-20T12:30:21.870Z,74.60
2023-04-20T12:33:23.666Z,74.10
2023-04-20T12:36:25.780Z,75.40
2023-04-20T12:39:27.376Z,74.20
2023-04-20T12:42:29.325Z,73.50
2023-04-20T12:45:31.151Z,73.30
2023-04-20T12:48:32.693Z,72.60
2023-04-20T12:51:34.255Z,72.50
2023-04-20T12:54:35.915Z,72.80
2023-04-20T12:57:38.126Z,73.30
2023-04-20T13:00:41.982Z,74.50
2023-04-20T13:03:43.844Z,74.40
2023-04-20T13:06:45.721Z,74.50
2023-04-20T13:09:47.341Z,73.50
2023-04-20T13:12:48.965Z,71.20
2023-04-20T13:15:53.070Z,70.40
2023-04-20T13:18:54.716Z,71.30
2023-04-20T13:21:56.740Z,71.60
2023-04-20T13:24:58.302Z,72.80
2023-04-20T13:28:01.691Z,72.90
2023-04-20T13:31:03.462Z,71.90
2023-04-20T13:34:05.138Z,71.60
2023-04-20T13:37:07.123Z,70.70
2023-04-20T13:40:09.811Z,70.20
2023-04-20T13:43:12.829Z,71.60
2023-04-20T13:46:15.741Z,71.70
2023-04-20T13:49:17.333Z,72.70
2023-04-20T13:52:19.435Z,71.50
2023-04-20T13:55:21.140Z,71.30
2023-04-20T13:58:22.738Z,70.40
2023-04-20T14:01:25.792Z,71.00
2023-04-20T14:04:27.588Z,70.20
2023-04-20T14:07:29.366Z,69.50
2023-04-20T14:10:38.157Z,68.30
2023-04-20T14:13:41.039Z,67.30
2023-04-20T14:16:47.016Z,68.10
2023-04-20T14:19:49.486Z,68.00
2023-04-20T14:22:51.096Z,67.50
2023-04-20T14:25:52.675Z,68.10
2023-04-20T14:28:54.622Z,68.60
2023-04-20T14:31:56.223Z,67.60
2023-04-20T14:34:57.813Z,67.90
2023-04-20T14:37:59.325Z,69.80
2023-04-20T14:41:01.183Z,68.20
2023-04-20T14:44:02.774Z,69.20
2023-04-20T14:47:04.407Z,69.90
2023-04-20T14:50:08.030Z,69.00
2023-04-20T14:53:09.675Z,66.90
2023-04-20T14:56:11.252Z,67.00
2023-04-20T14:59:12.917Z,68.20
2023-04-20T15:02:14.537Z,69.80
2023-04-20T15:05:16.636Z,68.20
2023-04-20T15:08:18.508Z,67.20
2023-04-20T15:11:20.252Z,65.20
2023-04-20T15:14:21.854Z,64.90
2023-04-20T15:17:23.459Z,65.40
2023-04-20T15:20:25.160Z,65.80
2023-04-20T15:23:26.712Z,64.40
2023-04-20T15:26:28.270Z,65.10
2023-04-20T15:29:30.209Z,64.90
2023-04-20T15:32:33.769Z,65.50
2023-04-20T15:35:35.494Z,66.10
2023-04-20T15:38:37.066Z,66.00
2023-04-20T15:41:38.720Z,66.80
2023-04-20T15:44:41.390Z,66.30
2023-04-20T15:47:42.993Z,66.40
2023-04-20T15:50:44.751Z,66.90
2023-04-20T15:53:50.358Z,66.00
2023-04-20T15:56:52.046Z,66.50
2023-04-20T15:59:53.747Z,68.20
2023-04-20T16:02:55.467Z,67.10
2023-04-20T16:05:57.147Z,67.30
2023-04-20T16:08:58.831Z,67.50
2023-04-20T16:12:03.858Z,67.70
2023-04-20T16:15:06.037Z,67.50
2023-04-20T16:18:07.733Z,67.60
2023-04-20T16:21:09.328Z,68.00
2023-04-20T16:24:10.877Z,68.10
2023-04-20T16:27:12.794Z,68.90
2023-04-20T16:30:14.565Z,68.00
2023-04-20T16:33:16.171Z,68.80
2023-04-20T16:36:17.874Z,68.70
2023-04-20T16:39:19.492Z,67.90
2023-04-20T16:42:21.250Z,67.50
2023-04-20T16:45:22.981Z,67.60
2023-04-20T16:48:24.682Z,67.70
2023-04-20T16:51:27.098Z,68.00
2023-04-20T16:54:28.750Z,67.80
2023-04-20T16:57:31.909Z,67.70
2023-04-20T17:00:34.279Z,67.20
2023-04-20T17:03:36.121Z,67.50
2023-04-20T17:06:37.915Z,68.60
2023-04-20T17:09:39.883Z,68.60
2023-04-20T17:12:41.964Z,68.80
2023-04-20T17:15:44.994Z,68.80
2023-04-20T17:18:46.525Z,69.10
2023-04-20T17:21:48.135Z,69.60
2023-04-20T17:24:49.782Z,69.80
2023-04-20T17:27:51.495Z,70.50
2023-04-20T17:30:53.150Z,70.80
2023-04-20T17:33:55.594Z,71.00
2023-04-20T17:36:57.441Z,71.10
2023-04-20T17:39:58.960Z,71.40
2023-04-20T17:43:01.435Z,71.50
2023-04-20T17:46:03.209Z,71.90
2023-04-20T17:49:04.811Z,72.10
2023-04-20T17:52:06.868Z,72.40
2023-04-20T17:55:10.298Z,72.60
2023-04-20T17:58:12.843Z,73.20
2023-04-20T18:01:14.584Z,72.30
2023-04-20T18:04:16.387Z,72.80
2023-04-20T18:07:18.692Z,73.30
2023-04-20T18:10:20.427Z,73.70
2023-04-20T18:13:22.051Z,74.20
2023-04-20T18:16:23.808Z,74.40
2023-04-20T18:19:25.503Z,74.80
2023-04-20T18:22:27.075Z,75.00
2023-04-20T18:25:28.674Z,75.70
2023-04-20T18:28:30.595Z,75.60
2023-04-20T18:31:32.204Z,76.70
2023-04-20T18:34:33.872Z,76.80
2023-04-20T18:37:35.596Z,77.20
2023-04-20T18:40:37.412Z,77.40
2023-04-20T18:43:38.954Z,77.70
2023-04-20T18:46:42.251Z,77.80
2023-04-20T18:49:44.037Z,78.30
2023-04-20T18:52:45.954Z,78.30
2023-04-20T18:55:47.741Z,77.60
2023-04-20T18:58:49.394Z,78.70
2023-04-20T19:01:52.409Z,78.90
2023-04-20T19:04:54.209Z,78.90
2023-04-20T19:07:55.730Z,79.30
2023-04-20T19:10:57.655Z,79.30
2023-04-20T19:13:59.220Z,79.10
2023-04-20T19:17:02.036Z,79.20
2023-04-20T19:20:04.994Z,79.40
2023-04-20T19:23:06.578Z,79.40
2023-04-20T19:26:08.166Z,79.80
2023-04-20T19:29:12.241Z,79.90
2023-04-20T19:32:13.881Z,80.00
2023-04-20T19:35:15.598Z,80.10
2023-04-20T19:38:21.584Z,80.40
2023-04-20T19:41:23.232Z,80.90
2023-04-20T19:44:24.834Z,80.70
2023-04-20T19:47:27.297Z,81.00
2023-04-20T19:50:29.030Z,80.50
2023-04-20T19:53:31.682Z,80.50
2023-04-20T19:56:33.664Z,80.90
2023-04-20T19:59:37.551Z,81.30
2023-04-20T20:02:40.344Z,81.30
2023-04-20T20:05:43.439Z,81.20
2023-04-20T20:08:45.149Z,81.10
2023-04-20T20:11:49.851Z,81.00
2023-04-20T20:14:51.435Z,81.00
2023-04-20T20:17:55.366Z,80.90
2023-04-20T20:20:56.978Z,81.00
2023-04-20T20:23:58.525Z,81.20
2023-04-20T20:27:00.114Z,81.60
2023-04-20T20:30:01.709Z,81.20
2023-04-20T20:33:03.688Z,81.50
2023-04-20T20:36:06.753Z,82.50
2023-04-20T20:39:09.100Z,82.00
2023-04-20T20:42:12.463Z,82.20
2023-04-20T20:45:14.187Z,82.70
2023-04-20T20:48:15.769Z,83.00
2023-04-20T20:51:17.586Z,82.90
2023-04-20T20:54:21.948Z,83.00
2023-04-20T20:57:27.819Z,86.50
2023-04-20T21:00:29.894Z,85.50
2023-04-20T21:03:31.687Z,86.00
2023-04-20T21:06:33.740Z,84.70
2023-04-20T21:09:35.360Z,86.30
2023-04-20T21:12:37.226Z,84.70
2023-04-20T21:15:38.758Z,84.90
2023-04-20T21:18:40.336Z,85.30
2023-04-20T21:21:41.893Z,85.50
2023-04-20T21:24:43.717Z,85.90
2023-04-20T21:27:45.334Z,84.40
2023-04-20T21:30:46.906Z,85.80
2023-04-20T21:33:48.503Z,86.00
2023-04-20T21:36:50.154Z,86.00
2023-04-20T21:39:51.729Z,86.40
2023-04-20T21:42:53.283Z,86.40
2023-04-20T21:45:55.128Z,86.60
2023-04-20T21:48:56.771Z,86.90
2023-04-20T21:51:58.698Z,86.80
2023-04-20T21:55:00.380Z,86.00
2023-04-20T21:58:01.959Z,87.50
2023-04-20T22:01:03.745Z,87.80
2023-04-20T22:04:05.768Z,87.90
2023-04-20T22:07:07.976Z,88.10
2023-04-20T22:10:09.895Z,88.20
2023-04-20T22:13:13.304Z,88.20
2023-04-20T22:16:15.341Z,88.60
2023-04-20T22:19:17.486Z,88.80
2023-04-20T22:22:19.249Z,89.00
2023-04-20T22:25:21.007Z,89.50
2023-04-20T22:28:22.644Z,89.40
2023-04-20T22:31:24.612Z,89.50
2023-04-20T22:34:26.173Z,88.60
2023-04-20T22:37:28.204Z,89.80
2023-04-20T22:40:29.984Z,88.80
2023-04-20T22:43:31.583Z,90.00
2023-04-20T22:46:33.805Z,89.90
2023-04-20T22:49:35.788Z,89.40
2023-04-20T22:52:38.539Z,90.20
2023-04-20T22:55:40.971Z,90.20
2023-04-20T22:58:42.529Z,90.00
2023-04-20T23:01:44.095Z,90.00
2023-04-20T23:04:45.750Z,90.10
2023-04-20T23:07:47.519Z,90.10
2023-04-20T23:10:49.178Z,90.10
2023-04-20T23:13:50.721Z,90.20
2023-04-20T23:16:52.382Z,90.20
2023-04-20T23:19:55.056Z,90.20
2023-04-20T23:22:56.571Z,90.30
2023-04-20T23:25:58.157Z,90.30
2023-04-20T23:28:59.718Z,90.30
2023-04-20T23:32:01.621Z,90.10
2023-04-20T23:35:03.329Z,90.10
2023-04-20T23:38:05.389Z,90.20
2023-04-20T23:41:11.335Z,90.30
2023-04-20T23:44:13.057Z,90.60
2023-04-20T23:47:15.488Z,90.40
2023-04-20T23:50:17.055Z,90.40
2023-04-20T23:53:18.703Z,90.50
2023-04-20T23:56:20.291Z,90.50
2023-04-20T23:59:21.856Z,91.00
